Time;durP1;ratioP1;P1;durP2;ratioP2;P2;SDS_P1;SDS_P2;PMS_P1;PMS_P2;Temp;Humidity;BMP_temperature;BMP_pressure;BME280_temperature;BME280_humidity;BME280_pressure;Samples;Min_cycle;Max_cycle;Signal;HPM_P1;HPM_P2
2022/03/20 00:01:24;;;;;;;;;;;;;;;;;;4203276;28;1093;-57
2022/03/20 00:03:45;;;;;;;;;;;;;;;;;;4203440;28;1167;-58
2022/03/20 00:06:06;;;;;;;;;;;;;;;;;;4203253;28;994;-57
2022/03/20 00:08:26;;;;;;;;;;;;;;;;;;4203234;28;1117;-57
2022/03/20 00:10:47;;;;;;;;;;;;;;;;;;4203305;28;982;-58
2022/03/20 00:13:08;;;;;;;;;;;;;;;;;;4203117;28;1905;-57
2022/03/20 00:15:30;;;;;;;;;;;;;;;;;;4203229;28;1080;-58
2022/03/20 00:17:50;;;;;;;;;;;;;;;;;;4203051;28;1091;-57
2022/03/20 00:20:11;;;;;;;;;;;;;;;;;;4203286;28;858;-58
2022/03/20 00:22:34;;;;;;;;;;;;;;;;;;4202942;28;941;-58
2022/03/20 00:24:55;;;;;;;;;;;;;;;;;;4202976;28;1525;-57
2022/03/20 00:27:16;;;;;;;;;;;;;;;;;;4202948;28;1087;-58
2022/03/20 00:29:37;;;;;;;;;;;;;;;;;;4202919;28;1171;-57
2022/03/20 00:31:57;;;;;;;;;;;;;;;;;;4202725;28;1918;-57
2022/03/20 00:34:18;;;;;;;;;;;;;;;;;;4202903;28;1236;-57
2022/03/20 00:36:39;;;;;;;;;;;;;;;;;;4203118;28;878;-58
2022/03/20 00:39:00;;;;;;;;;;;;;;;;;;4202822;28;1131;-57
2022/03/20 00:41:21;;;;;;;;;;;;;;;;;;4202645;28;945;-57
2022/03/20 00:43:42;;;;;;;;;;;;;;;;;;4201644;28;1110;-58
2022/03/20 00:46:03;;;;;;;;;;;;;;;;;;4214710;28;1310;-57
2022/03/20 00:48:23;;;;;;;;;;;;;;;;;;4219632;28;990;-57
2022/03/20 00:50:44;;;;;;;;;;;;;;;;;;4219739;28;1095;-57
2022/03/20 00:53:05;;;;;;;;;;;;;;;;;;4219567;28;1913;-57
2022/03/20 00:55:26;;;;;;;;;;;;;;;;;;4219539;28;962;-57
2022/03/20 00:58:00;;;;;;;;;;;;;;;;;;4203122;28;1226;-57
2022/03/20 01:00:40;;;;;;;;;;;;;;;;;;4222399;28;1050;-58
2022/03/20 01:03:01;;;;;;;;;;;;;;;;;;4222518;28;1174;-57
2022/03/20 01:05:22;;;;;;;;;;;;;;;;;;4222617;28;1060;-57
2022/03/20 01:07:43;;;;;;;;;;;;;;;;;;4222409;28;1096;-57
2022/03/20 01:10:04;;;;;;;;;;;;;;;;;;4222474;28;1180;-57
2022/03/20 01:12:26;;;;;;;;;;;;;;;;;;4222133;28;1979;-57
2022/03/20 01:14:47;;;;;;;;;;;;;;;;;;4221011;28;1235;-58
2022/03/20 01:17:08;;;;;;;;;;;;;;;;;;4222354;28;902;-57
2022/03/20 01:19:28;;;;;;;;;;;;;;;;;;4220768;28;1380;-57
2022/03/20 01:21:49;;;;;;;;;;;;;;;;;;4222165;28;1015;-57
2022/03/20 01:24:09;;;;;;;;;;;;;;;;;;4222391;28;1137;-57
2022/03/20 01:26:30;;;;;;;;;;;;;;;;;;4222399;28;1076;-58
2022/03/20 01:28:51;;;;;;;;;;;;;;;;;;4222470;28;1211;-58
2022/03/20 01:31:11;;;;;;;;;;;;;;;;;;4221885;28;1084;-57
2022/03/20 01:33:34;;;;;;;;;;;;;;;;;;4221653;28;1996;-58
2022/03/20 01:35:55;;;;;;;;;;;;;;;;;;4221901;28;1197;-58
2022/03/20 01:38:20;;;;;;;;;;;;;;;;;;4221984;28;931;-57
2022/03/20 01:40:40;;;;;;;;;;;;;;;;;;4222064;28;999;-58
2022/03/20 01:43:01;;;;;;;;;;;;;;;;;;4221909;28;1033;-58
2022/03/20 01:45:22;;;;;;;;;;;;;;;;;;4222002;28;1470;-57
2022/03/20 01:47:43;;;;;;;;;;;;;;;;;;4221965;28;985;-57
2022/03/20 01:50:04;;;;;;;;;;;;;;;;;;4222087;28;1219;-57
2022/03/20 01:52:25;;;;;;;;;;;;;;;;;;4254192;27;1970;-57
2022/03/20 01:54:47;;;;;;;;;;;;;;;;;;4221803;28;961;-58
2022/03/20 01:57:09;;;;;;;;;;;;;;;;;;4221571;28;1138;-57
2022/03/20 01:59:29;;;;;;;;;;;;;;;;;;4221440;28;1274;-57
2022/03/20 02:01:59;;;;;;;;;;;;;;;;;;4221162;28;1539;-57
2022/03/20 02:04:20;;;;;;;;;;;;;;;;;;4197275;28;1388;-57
2022/03/20 02:06:40;;;;;;;;;;;;;;;;;;4204138;28;1198;-58
2022/03/20 02:09:01;;;;;;;;;;;;;;;;;;4204052;28;1107;-57
2022/03/20 02:11:22;;;;;;;;;;;;;;;;;;4203112;28;1002;-58
2022/03/20 02:13:42;;;;;;;;;;;;;;;;;;4203838;28;1990;-58
2022/03/20 02:16:03;;;;;;;;;;;;;;;;;;4204175;28;1172;-58
2022/03/20 02:18:25;;;;;;;;;;;;;;;;;;4202948;28;1127;-58
2022/03/20 02:20:46;;;;;;;;;;;;;;;;;;4204020;28;1067;-57
2022/03/20 02:23:07;;;;;;;;;;;;;;;;;;4204623;28;1209;-57
2022/03/20 02:25:29;;;;;;;;;;;;;;;;;;4204661;28;1139;-57
2022/03/20 02:27:50;;;;;;;;;;;;;;;;;;4204302;28;985;-57
2022/03/20 02:30:14;;;;;;;;;;;;;;;;;;4203074;28;974;-58
2022/03/20 02:32:35;;;;;;;;;;;;;;;;;;4204016;28;1906;-57
2022/03/20 02:34:56;;;;;;;;;;;;;;;;;;4204368;28;1180;-57
2022/03/20 02:37:17;;;;;;;;;;;;;;;;;;4187706;28;964;-57
2022/03/20 02:39:38;;;;;;;;;;;;;;;;;;4187987;28;985;-57
2022/03/20 02:41:58;;;;;;;;;;;;;;;;;;4187774;28;1181;-58
2022/03/20 02:44:19;;;;;;;;;;;;;;;;;;4187627;28;941;-57
2022/03/20 02:46:40;;;;;;;;;;;;;;;;;;4187603;28;1000;-58
2022/03/20 02:49:01;;;;;;;;;;;;;;;;;;4187607;28;1347;-58
2022/03/20 02:51:22;;;;;;;;;;;;;;;;;;4187191;28;1390;-58
2022/03/20 02:53:43;;;;;;;;;;;;;;;;;;4187167;28;1913;-58
2022/03/20 02:56:04;;;;;;;;;;;;;;;;;;4187436;28;956;-57
2022/03/20 02:58:25;;;;;;;;;;;;;;;;;;4186740;28;1565;-57
2022/03/20 03:00:46;;;;;;;;;;;;;;;;;;4187371;28;1092;-58
2022/03/20 03:03:11;;;;;;;;;;;;;;;;;;4200451;28;984;-57
2022/03/20 03:05:31;;;;;;;;;;;;;;;;;;4187324;28;988;-57
2022/03/20 03:13:08;;;;;;;;;;;;;;;;;;4187191;28;1914;-57
2022/03/20 03:15:29;;;;;;;;;;;;;;;;;;4187609;28;949;-57
2022/03/20 03:17:50;;;;;;;;;;;;;;;;;;4187322;28;994;-57
2022/03/20 03:20:11;;;;;;;;;;;;;;;;;;4186760;28;909;-58
2022/03/20 03:22:31;;;;;;;;;;;;;;;;;;4186825;28;999;-58
2022/03/20 03:24:52;;;;;;;;;;;;;;;;;;4187386;28;951;-58
2022/03/20 03:27:13;;;;;;;;;;;;;;;;;;4199766;28;1030;-58
2022/03/20 03:29:35;;;;;;;;;;;;;;;;;;4187100;28;1409;-57
2022/03/20 03:31:56;;;;;;;;;;;;;;;;;;4193929;28;1120;-57
2022/03/20 03:36:55;;;;;;;;;;;;;;;;;;4203516;28;1140;-58
2022/03/20 03:39:16;;;;;;;;;;;;;;;;;;4203853;28;1016;-57
2022/03/20 03:41:37;;;;;;;;;;;;;;;;;;4203465;28;1016;-57
2022/03/20 03:43:57;;;;;;;;;;;;;;;;;;4202935;28;1366;-57
2022/03/20 03:46:18;;;;;;;;;;;;;;;;;;4203410;28;1392;-57
2022/03/20 03:48:39;;;;;;;;;;;;;;;;;;4202681;28;870;-57
2022/03/20 03:51:00;;;;;;;;;;;;;;;;;;4203158;28;948;-58
2022/03/20 03:53:20;;;;;;;;;;;;;;;;;;4203224;28;1913;-57
2022/03/20 03:55:43;;;;;;;;;;;;;;;;;;4203322;28;1258;-58
2022/03/20 03:58:04;;;;;;;;;;;;;;;;;;4202732;28;1033;-57
2022/03/20 04:00:26;;;;;;;;;;;;;;;;;;4203171;28;1154;-57
2022/03/20 04:02:47;;;;;;;;;;;;;;;;;;4203332;28;951;-56
2022/03/20 04:05:07;;;;;;;;;;;;;;;;;;4203013;28;952;-55
2022/03/20 04:07:28;;;;;;;;;;;;;;;;;;4216191;28;941;-55
2022/03/20 04:09:48;;;;;;;;;;;;;;;;;;4203058;28;1036;-56
2022/03/20 04:12:09;;;;;;;;;;;;;;;;;;4202989;28;1436;-55
2022/03/20 04:14:29;;;;;;;;;;;;;;;;;;4216090;28;1992;-56
2022/03/20 04:16:54;;;;;;;;;;;;;;;;;;4203068;28;1360;-55
2022/03/20 04:19:15;;;;;;;;;;;;;;;;;;4216301;28;953;-56
2022/03/20 04:21:35;;;;;;;;;;;;;;;;;;4203309;28;1164;-56
2022/03/20 04:23:56;;;;;;;;;;;;;;;;;;4215860;28;1024;-56
2022/03/20 04:26:17;;;;;;;;;;;;;;;;;;4202621;28;1084;-55
2022/03/20 04:28:38;;;;;;;;;;;;;;;;;;4202757;28;908;-56
2022/03/20 04:30:59;;;;;;;;;;;;;;;;;;4203059;28;1015;-57
2022/03/20 04:33:19;;;;;;;;;;;;;;;;;;4205251;28;1983;-55
2022/03/20 04:35:40;;;;;;;;;;;;;;;;;;4205945;28;994;-56
2022/03/20 04:38:01;;;;;;;;;;;;;;;;;;4206020;28;1256;-55
2022/03/20 04:40:21;;;;;;;;;;;;;;;;;;4206099;28;1054;-55
2022/03/20 04:42:42;;;;;;;;;;;;;;;;;;4206112;28;1050;-55
2022/03/20 04:45:04;;;;;;;;;;;;;;;;;;4206175;28;1024;-55
2022/03/20 05:00:36;;;;;;;;;;;;;;;;;;4205617;28;1037;-55
2022/03/20 05:02:57;;;;;;;;;;;;;;;;;;4205683;28;1475;-55
2022/03/20 05:05:18;;;;;;;;;;;;;;;;;;4205849;28;864;-56
2022/03/20 05:07:38;;;;;;;;;;;;;;;;;;4205490;28;1297;-56
2022/03/20 05:15:16;;;;;;;;;;;;;;;;;;4205606;28;926;-56
2022/03/20 05:17:37;;;;;;;;;;;;;;;;;;4205842;28;978;-55
2022/03/20 05:19:58;;;;;;;;;;;;;;;;;;4205585;28;1011;-56
2022/03/20 05:22:19;;;;;;;;;;;;;;;;;;4205225;28;1285;-56
2022/03/20 05:24:40;;;;;;;;;;;;;;;;;;4205391;28;980;-55
2022/03/20 05:27:01;;;;;;;;;;;;;;;;;;4205197;28;1249;-56
2022/03/20 05:29:21;;;;;;;;;;;;;;;;;;4205574;28;1175;-56
2022/03/20 05:31:42;;;;;;;;;;;;;;;;;;4205062;28;1319;-55
2022/03/20 05:34:03;;;;;;;;;;;;;;;;;;4205204;28;1909;-56
2022/03/20 05:36:28;;;;;;;;;;;;;;;;;;4204857;28;1115;-55
2022/03/20 05:38:49;;;;;;;;;;;;;;;;;;4204931;28;1019;-56
2022/03/20 05:43:52;;;;;;;;;;;;;;;;;;4204472;28;970;-56
2022/03/20 05:46:15;;;;;;;;;;;;;;;;;;4204973;28;1103;-55
2022/03/20 05:48:37;;;;;;;;;;;;;;;;;;4205047;28;1209;-55
2022/03/20 05:50:58;;;;;;;;;;;;;;;;;;4205096;28;869;-55
2022/03/20 05:53:19;;;;;;;;;;;;;;;;;;4204860;28;953;-55
2022/03/20 05:58:18;;;;;;;;;;;;;;;;;;4204749;28;1134;-55
2022/03/20 06:00:41;;;;;;;;;;;;;;;;;;4204278;28;1507;-55
2022/03/20 06:03:02;;;;;;;;;;;;;;;;;;4205155;28;1001;-56
2022/03/20 06:05:23;;;;;;;;;;;;;;;;;;4205153;28;979;-55
2022/03/20 06:07:44;;;;;;;;;;;;;;;;;;4204836;28;1091;-56
2022/03/20 06:10:04;;;;;;;;;;;;;;;;;;4205020;28;961;-56
2022/03/20 06:12:25;;;;;;;;;;;;;;;;;;4204905;28;943;-55
2022/03/20 06:14:48;;;;;;;;;;;;;;;;;;4205049;28;1909;-55
2022/03/20 06:17:09;;;;;;;;;;;;;;;;;;4211499;28;1070;-55
2022/03/20 06:19:30;;;;;;;;;;;;;;;;;;4221600;28;969;-55
2022/03/20 06:21:51;;;;;;;;;;;;;;;;;;4206091;28;1704;-56
2022/03/20 06:24:12;;;;;;;;;;;;;;;;;;4204582;28;968;-56
2022/03/20 06:26:34;;;;;;;;;;;;;;;;;;4204522;28;1086;-55
2022/03/20 06:28:55;;;;;;;;;;;;;;;;;;4204720;28;981;-55
2022/03/20 06:31:15;;;;;;;;;;;;;;;;;;4204182;28;1926;-56
2022/03/20 06:33:37;;;;;;;;;;;;;;;;;;4204821;28;969;-55
2022/03/20 06:35:58;;;;;;;;;;;;;;;;;;4204414;28;1224;-55
2022/03/20 06:38:18;;;;;;;;;;;;;;;;;;4204056;28;1118;-56
2022/03/20 06:40:40;;;;;;;;;;;;;;;;;;4204392;28;1121;-55
2022/03/20 06:43:01;;;;;;;;;;;;;;;;;;4204283;28;1275;-56
2022/03/20 06:45:22;;;;;;;;;;;;;;;;;;4204222;28;1133;-56
2022/03/20 06:47:42;;;;;;;;;;;;;;;;;;4202870;28;1090;-55
2022/03/20 06:50:04;;;;;;;;;;;;;;;;;;4204378;28;983;-55
2022/03/20 06:52:28;;;;;;;;;;;;;;;;;;4203934;28;1096;-56
2022/03/20 06:54:49;;;;;;;;;;;;;;;;;;4203761;28;1973;-55
2022/03/20 06:57:09;;;;;;;;;;;;;;;;;;4204308;28;934;-55
2022/03/20 06:59:30;;;;;;;;;;;;;;;;;;4203756;28;1305;-56
2022/03/20 07:01:51;;;;;;;;;;;;;;;;;;4203903;28;1660;-55
2022/03/20 07:04:12;;;;;;;;;;;;;;;;;;4204001;28;997;-56
2022/03/20 07:06:33;;;;;;;;;;;;;;;;;;4203680;28;949;-56
2022/03/20 07:08:58;;;;;;;;;;;;;;;;;;4216805;28;1311;-55
2022/03/20 07:11:19;;;;;;;;;;;;;;;;;;4203891;28;1036;-55
2022/03/20 07:13:53;;;;;;;;;;;;;;;;;;4187081;28;853;-55
2022/03/20 07:16:14;;;;;;;;;;;;;;;;;;4187201;28;1065;-55
2022/03/20 07:18:36;;;;;;;;;;;;;;;;;;4187950;28;1020;-55
2022/03/20 07:20:56;;;;;;;;;;;;;;;;;;4187029;28;1288;-56
2022/03/20 07:23:17;;;;;;;;;;;;;;;;;;4187360;28;1015;-55
2022/03/20 07:31:08;;;;;;;;;;;;;;;;;;4168102;28;960;-55
2022/03/20 07:33:29;;;;;;;;;;;;;;;;;;4185766;28;963;-56
2022/03/20 07:35:49;;;;;;;;;;;;;;;;;;4203510;28;1909;-56
2022/03/20 07:38:10;;;;;;;;;;;;;;;;;;4203725;28;804;-55
2022/03/20 07:40:32;;;;;;;;;;;;;;;;;;4198790;28;1755;-55
2022/03/20 07:42:52;;;;;;;;;;;;;;;;;;4197017;28;1732;-56
2022/03/20 07:45:13;;;;;;;;;;;;;;;;;;4203622;28;1214;-55
2022/03/20 07:47:34;;;;;;;;;;;;;;;;;;4203616;28;1427;-55
2022/03/20 07:49:55;;;;;;;;;;;;;;;;;;4201430;28;1450;-55
2022/03/20 07:52:16;;;;;;;;;;;;;;;;;;4186969;28;1173;-55
2022/03/20 07:54:37;;;;;;;;;;;;;;;;;;4187629;28;1910;-55
2022/03/20 07:56:58;;;;;;;;;;;;;;;;;;4203424;28;1025;-55
2022/03/20 07:59:18;;;;;;;;;;;;;;;;;;4203243;28;1401;-55
2022/03/20 08:01:39;;;;;;;;;;;;;;;;;;4203046;28;1071;-55
2022/03/20 08:04:00;;;;;;;;;;;;;;;;;;4203157;28;1114;-55
2022/03/20 08:06:21;;;;;;;;;;;;;;;;;;4202841;28;902;-55
2022/03/20 08:08:43;;;;;;;;;;;;;;;;;;4186327;28;949;-58
2022/03/20 08:11:03;;;;;;;;;;;;;;;;;;4199436;28;1406;-55
2022/03/20 08:13:24;;;;;;;;;;;;;;;;;;4203210;28;863;-55
2022/03/20 08:15:45;;;;;;;;;;;;;;;;;;4203331;28;1910;-55
2022/03/20 08:18:07;;;;;;;;;;;;;;;;;;4203440;28;1050;-55
2022/03/20 08:20:28;;;;;;;;;;;;;;;;;;4202971;28;1058;-55
2022/03/20 08:22:49;;;;;;;;;;;;;;;;;;4203108;28;1016;-55
2022/03/20 08:25:11;;;;;;;;;;;;;;;;;;4202387;28;1255;-55
2022/03/20 08:27:32;;;;;;;;;;;;;;;;;;4202003;28;1124;-55
2022/03/20 08:29:53;;;;;;;;;;;;;;;;;;4201742;28;1338;-55
2022/03/20 08:32:14;;;;;;;;;;;;;;;;;;4200722;28;1557;-56
2022/03/20 08:34:36;;;;;;;;;;;;;;;;;;4200579;28;1992;-55
2022/03/20 08:36:56;;;;;;;;;;;;;;;;;;4200909;28;1776;-55
2022/03/20 08:39:17;;;;;;;;;;;;;;;;;;4200986;28;1747;-55
2022/03/20 08:41:38;;;;;;;;;;;;;;;;;;4201101;28;1411;-55
2022/03/20 08:43:59;;;;;;;;;;;;;;;;;;4201495;28;1575;-55
2022/03/20 08:46:20;;;;;;;;;;;;;;;;;;4201063;28;1561;-55
2022/03/20 08:48:41;;;;;;;;;;;;;;;;;;4201175;28;1720;-55
2022/03/20 08:51:02;;;;;;;;;;;;;;;;;;4201597;28;1737;-55
2022/03/20 08:53:25;;;;;;;;;;;;;;;;;;4201605;28;1722;-56
2022/03/20 08:55:47;;;;;;;;;;;;;;;;;;4198886;28;1910;-55
2022/03/20 08:58:08;;;;;;;;;;;;;;;;;;4200743;28;1675;-55
2022/03/20 09:00:29;;;;;;;;;;;;;;;;;;4201764;28;2023;-55
2022/03/20 09:02:50;;;;;;;;;;;;;;;;;;4200357;28;1508;-55
2022/03/20 09:05:12;;;;;;;;;;;;;;;;;;4199979;28;1973;-55
2022/03/20 09:07:32;;;;;;;;;;;;;;;;;;4200567;28;1333;-55
2022/03/20 09:09:54;;;;;;;;;;;;;;;;;;4201260;28;1986;-55
2022/03/20 09:12:16;;;;;;;;;;;;;;;;;;4234440;27;1411;-61
2022/03/20 09:14:37;;;;;;;;;;;;;;;;;;4232819;28;1471;-62
2022/03/20 09:19:37;;;;;;;;;;;;;;;;;;4232919;28;1486;-62
2022/03/20 09:21:59;;;;;;;;;;;;;;;;;;4235121;27;1426;-62
2022/03/20 09:24:21;;;;;;;;;;;;;;;;;;4235191;27;857;-62
2022/03/20 09:26:42;;;;;;;;;;;;;;;;;;4236294;27;986;-62
2022/03/20 09:29:03;;;;;;;;;;;;;;;;;;4236302;27;1023;-62
2022/03/20 09:31:24;;;;;;;;;;;;;;;;;;4233852;28;1977;-62
2022/03/20 09:33:45;;;;;;;;;;;;;;;;;;4230852;28;1693;-63
2022/03/20 09:36:06;;;;;;;;;;;;;;;;;;4229973;27;1941;-63
2022/03/20 09:38:28;;;;;;;;;;;;;;;;;;4215190;28;1147;-63
2022/03/20 09:40:49;;;;;;;;;;;;;;;;;;4228912;27;1230;-63
2022/03/20 09:43:11;;;;;;;;;;;;;;;;;;4233440;27;1336;-63
2022/03/20 09:45:32;;;;;;;;;;;;;;;;;;4233060;27;1534;-63
2022/03/20 09:47:53;;;;;;;;;;;;;;;;;;4225701;27;1954;-62
2022/03/20 09:50:14;;;;;;;;;;;;;;;;;;4216694;28;914;-62
2022/03/20 09:52:35;;;;;;;;;;;;;;;;;;4216662;28;1214;-63
2022/03/20 09:54:56;;;;;;;;;;;;;;;;;;4220663;28;1353;-63
2022/03/20 09:57:17;;;;;;;;;;;;;;;;;;4233442;27;1197;-62
2022/03/20 09:59:38;;;;;;;;;;;;;;;;;;4216329;28;972;-62
2022/03/20 10:01:58;;;;;;;;;;;;;;;;;;4215580;28;1247;-62
2022/03/20 10:04:19;;;;;;;;;;;;;;;;;;4216447;28;982;-62
2022/03/20 10:06:40;;;;;;;;;;;;;;;;;;4216391;28;1240;-62
2022/03/20 10:09:01;;;;;;;;;;;;;;;;;;4216037;28;975;-63
2022/03/20 10:11:22;;;;;;;;;;;;;;;;;;4231258;28;1914;-62
2022/03/20 10:13:43;;;;;;;;;;;;;;;;;;4232967;27;1927;-63
2022/03/20 10:16:04;;;;;;;;;;;;;;;;;;4232958;27;1940;-63
2022/03/20 10:18:25;;;;;;;;;;;;;;;;;;4233138;27;1997;-63
2022/03/20 10:20:46;;;;;;;;;;;;;;;;;;4231939;28;1575;-63
2022/03/20 10:23:07;;;;;;;;;;;;;;;;;;4224939;27;2042;-63
2022/03/20 10:25:28;;;;;;;;;;;;;;;;;;4219217;28;1527;-63
2022/03/20 10:27:49;;;;;;;;;;;;;;;;;;4221585;28;1346;-63
2022/03/20 10:30:10;;;;;;;;;;;;;;;;;;4220744;28;993;-62
2022/03/20 10:32:31;;;;;;;;;;;;;;;;;;4221574;28;1906;-63
2022/03/20 10:34:54;;;;;;;;;;;;;;;;;;4221688;28;1393;-63
2022/03/20 10:37:15;;;;;;;;;;;;;;;;;;4221750;28;1025;-62
2022/03/20 10:39:36;;;;;;;;;;;;;;;;;;4221433;28;1449;-62
2022/03/20 10:41:58;;;;;;;;;;;;;;;;;;4219940;28;1993;-63
2022/03/20 10:44:19;;;;;;;;;;;;;;;;;;4220568;28;832;-62
2022/03/20 10:46:40;;;;;;;;;;;;;;;;;;4212427;28;1812;-63
2022/03/20 10:49:01;;;;;;;;;;;;;;;;;;4213323;28;1832;-63
2022/03/20 10:51:22;;;;;;;;;;;;;;;;;;4223811;28;1882;-62
2022/03/20 10:53:43;;;;;;;;;;;;;;;;;;4236754;27;984;-63
2022/03/20 10:56:05;;;;;;;;;;;;;;;;;;4223209;28;1202;-62
2022/03/20 10:58:26;;;;;;;;;;;;;;;;;;4220022;28;1394;-62
2022/03/20 11:00:47;;;;;;;;;;;;;;;;;;4220498;28;809;-64
2022/03/20 11:03:11;;;;;;;;;;;;;;;;;;4219946;28;997;-63
2022/03/20 11:05:32;;;;;;;;;;;;;;;;;;4220307;28;975;-63
2022/03/20 11:07:53;;;;;;;;;;;;;;;;;;4220035;28;1005;-63
2022/03/20 11:10:14;;;;;;;;;;;;;;;;;;4219542;28;1131;-62
2022/03/20 11:12:35;;;;;;;;;;;;;;;;;;4218919;28;1909;-63
2022/03/20 11:14:56;;;;;;;;;;;;;;;;;;4219942;28;976;-62
2022/03/20 11:17:18;;;;;;;;;;;;;;;;;;4219658;28;1079;-63
2022/03/20 11:19:43;;;;;;;;;;;;;;;;;;4216891;28;978;-63
2022/03/20 11:22:03;;;;;;;;;;;;;;;;;;4219484;28;1640;-61
2022/03/20 11:24:24;;;;;;;;;;;;;;;;;;4217967;28;1256;-61
2022/03/20 11:26:48;;;;;;;;;;;;;;;;;;4219521;28;1017;-61
2022/03/20 11:29:09;;;;;;;;;;;;;;;;;;4202890;28;1082;-61
2022/03/20 11:31:30;;;;;;;;;;;;;;;;;;4202660;28;2017;-61
2022/03/20 11:33:51;;;;;;;;;;;;;;;;;;4202413;28;1426;-61
2022/03/20 11:36:12;;;;;;;;;;;;;;;;;;4218031;28;1790;-61
2022/03/20 11:38:35;;;;;;;;;;;;;;;;;;4219818;28;1029;-61
2022/03/20 11:40:56;;;;;;;;;;;;;;;;;;4220708;28;1013;-61
2022/03/20 11:43:19;;;;;;;;;;;;;;;;;;4218261;28;1922;-61
2022/03/20 11:45:40;;;;;;;;;;;;;;;;;;4216459;28;1147;-61
2022/03/20 11:48:01;;;;;;;;;;;;;;;;;;4221026;28;957;-61
2022/03/20 11:50:22;;;;;;;;;;;;;;;;;;4220924;28;997;-61
2022/03/20 11:52:44;;;;;;;;;;;;;;;;;;4220489;28;1990;-61
2022/03/20 11:55:05;;;;;;;;;;;;;;;;;;4219447;28;1640;-61
2022/03/20 11:57:26;;;;;;;;;;;;;;;;;;4205886;28;1927;-62
2022/03/20 11:59:48;;;;;;;;;;;;;;;;;;4202722;28;1019;-63
2022/03/20 12:02:08;;;;;;;;;;;;;;;;;;4202297;28;1226;-61
2022/03/20 12:04:29;;;;;;;;;;;;;;;;;;4234016;27;2523;-62
2022/03/20 12:06:50;;;;;;;;;;;;;;;;;;4215555;28;1459;-62
2022/03/20 12:09:12;;;;;;;;;;;;;;;;;;4217619;28;1639;-61
2022/03/20 12:11:33;;;;;;;;;;;;;;;;;;4217952;28;1974;-62
2022/03/20 12:13:54;;;;;;;;;;;;;;;;;;4216516;28;1653;-61
2022/03/20 12:16:14;;;;;;;;;;;;;;;;;;4218599;28;1233;-61
2022/03/20 12:18:36;;;;;;;;;;;;;;;;;;4218518;28;845;-61
2022/03/20 12:21:03;;;;;;;;;;;;;;;;;;4218266;28;1103;-62
2022/03/20 12:23:24;;;;;;;;;;;;;;;;;;4219486;28;863;-61
2022/03/20 12:25:45;;;;;;;;;;;;;;;;;;4218347;28;1388;-61
2022/03/20 12:28:06;;;;;;;;;;;;;;;;;;4219018;28;953;-61
2022/03/20 12:30:27;;;;;;;;;;;;;;;;;;4218880;28;955;-61
2022/03/20 12:32:48;;;;;;;;;;;;;;;;;;4218654;28;1996;-61
2022/03/20 12:35:09;;;;;;;;;;;;;;;;;;4218476;28;1821;-61
2022/03/20 12:37:30;;;;;;;;;;;;;;;;;;4202475;28;1059;-61
2022/03/20 12:39:54;;;;;;;;;;;;;;;;;;4207023;28;2038;-62
2022/03/20 12:42:15;;;;;;;;;;;;;;;;;;4216220;28;1668;-63
2022/03/20 12:44:36;;;;;;;;;;;;;;;;;;4218607;28;1092;-61
2022/03/20 12:46:58;;;;;;;;;;;;;;;;;;4218020;28;1046;-61
2022/03/20 12:49:19;;;;;;;;;;;;;;;;;;4218379;28;1107;-61
2022/03/20 12:51:40;;;;;;;;;;;;;;;;;;4215773;28;1921;-61
2022/03/20 12:54:02;;;;;;;;;;;;;;;;;;4218375;28;1027;-61
2022/03/20 12:56:28;;;;;;;;;;;;;;;;;;4218027;28;1316;-61
2022/03/20 12:58:48;;;;;;;;;;;;;;;;;;4218385;28;1074;-62
2022/03/20 13:01:09;;;;;;;;;;;;;;;;;;4218463;28;1135;-61
2022/03/20 13:03:30;;;;;;;;;;;;;;;;;;4218296;28;1010;-61
2022/03/20 13:05:51;;;;;;;;;;;;;;;;;;4218687;28;868;-62
2022/03/20 13:08:12;;;;;;;;;;;;;;;;;;4218464;28;951;-61
2022/03/20 13:10:33;;;;;;;;;;;;;;;;;;4218308;28;1848;-62
2022/03/20 13:12:54;;;;;;;;;;;;;;;;;;4217776;28;1977;-61
2022/03/20 13:15:15;;;;;;;;;;;;;;;;;;4218222;28;954;-61
2022/03/20 13:17:37;;;;;;;;;;;;;;;;;;4217745;28;937;-62
2022/03/20 13:19:58;;;;;;;;;;;;;;;;;;4218515;28;978;-61
2022/03/20 13:22:19;;;;;;;;;;;;;;;;;;4218162;28;976;-61
2022/03/20 13:24:42;;;;;;;;;;;;;;;;;;4217730;28;1050;-61
2022/03/20 13:27:04;;;;;;;;;;;;;;;;;;4218169;28;1000;-61
2022/03/20 13:29:25;;;;;;;;;;;;;;;;;;4215035;28;1586;-61
2022/03/20 13:31:47;;;;;;;;;;;;;;;;;;4201547;28;1176;-62
2022/03/20 13:34:07;;;;;;;;;;;;;;;;;;4211644;28;2254;-61
2022/03/20 13:36:28;;;;;;;;;;;;;;;;;;4202681;28;1299;-62
2022/03/20 13:38:50;;;;;;;;;;;;;;;;;;4202303;28;1219;-62
2022/03/20 13:41:11;;;;;;;;;;;;;;;;;;4217202;28;1053;-61
2022/03/20 13:43:32;;;;;;;;;;;;;;;;;;4218970;28;1756;-62
2022/03/20 13:45:55;;;;;;;;;;;;;;;;;;4217933;28;2013;-62
2022/03/20 13:48:17;;;;;;;;;;;;;;;;;;4219335;28;1877;-61
2022/03/20 13:50:38;;;;;;;;;;;;;;;;;;4219302;28;1212;-61
2022/03/20 13:52:59;;;;;;;;;;;;;;;;;;4217049;28;2011;-62
2022/03/20 13:55:20;;;;;;;;;;;;;;;;;;4219580;28;1132;-62
2022/03/20 13:57:41;;;;;;;;;;;;;;;;;;4219986;28;1211;-62
2022/03/20 14:00:02;;;;;;;;;;;;;;;;;;4220985;28;1133;-62
2022/03/20 14:02:33;;;;;;;;;;;;;;;;;;4222348;28;985;-61
2022/03/20 14:04:55;;;;;;;;;;;;;;;;;;4200659;28;3500;-62
2022/03/20 14:07:17;;;;;;;;;;;;;;;;;;4220664;28;2184;-61
2022/03/20 14:09:38;;;;;;;;;;;;;;;;;;4214935;28;2223;-62
2022/03/20 14:12:02;;;;;;;;;;;;;;;;;;4220301;28;1675;-62
2022/03/20 14:14:23;;;;;;;;;;;;;;;;;;4220474;28;1042;-61
2022/03/20 14:16:44;;;;;;;;;;;;;;;;;;4221460;28;1308;-62
2022/03/20 14:19:07;;;;;;;;;;;;;;;;;;4221120;28;935;-61
2022/03/20 14:21:31;;;;;;;;;;;;;;;;;;4221698;28;1145;-61
2022/03/20 14:23:51;;;;;;;;;;;;;;;;;;4222014;28;941;-62
2022/03/20 14:26:12;;;;;;;;;;;;;;;;;;4221125;28;1774;-61
2022/03/20 14:28:36;;;;;;;;;;;;;;;;;;4221442;28;1705;-66
2022/03/20 14:41:32;;;;;;;;;;;;;;;;;;4218259;28;1745;-63
2022/03/20 14:43:53;;;;;;;;;;;;;;;;;;4218137;28;2219;-62
2022/03/20 14:46:15;;;;;;;;;;;;;;;;;;4217332;28;1607;-62
2022/03/20 14:48:36;;;;;;;;;;;;;;;;;;4216177;28;2162;-65
2022/03/20 14:50:58;;;;;;;;;;;;;;;;;;4216636;28;2254;-64
2022/03/20 14:53:19;;;;;;;;;;;;;;;;;;4218800;28;1975;-63
2022/03/20 14:55:41;;;;;;;;;;;;;;;;;;4218767;28;2069;-64
2022/03/20 14:58:02;;;;;;;;;;;;;;;;;;4217350;28;2073;-62
2022/03/20 15:00:24;;;;;;;;;;;;;;;;;;4218561;28;1999;-64
2022/03/20 15:02:48;;;;;;;;;;;;;;;;;;4218296;28;1584;-61
2022/03/20 15:05:08;;;;;;;;;;;;;;;;;;4218484;28;1779;-62
2022/03/20 15:07:29;;;;;;;;;;;;;;;;;;4219467;28;1579;-61
2022/03/20 15:12:29;;;;;;;;;;;;;;;;;;4211118;28;1910;-61
2022/03/20 15:14:51;;;;;;;;;;;;;;;;;;4219121;28;1534;-61
2022/03/20 15:17:14;;;;;;;;;;;;;;;;;;4219331;28;1471;-61
2022/03/20 15:19:36;;;;;;;;;;;;;;;;;;4217091;28;1680;-61
2022/03/20 15:21:56;;;;;;;;;;;;;;;;;;4217441;28;1555;-61
2022/03/20 15:24:17;;;;;;;;;;;;;;;;;;4219114;28;1823;-62
2022/03/20 15:26:38;;;;;;;;;;;;;;;;;;4221591;27;1993;-62
2022/03/20 15:28:58;;;;;;;;;;;;;;;;;;4218350;28;2273;-61
2022/03/20 15:31:19;;;;;;;;;;;;;;;;;;4220215;28;2001;-62
2022/03/20 15:33:40;;;;;;;;;;;;;;;;;;4219646;28;1985;-61
2022/03/20 15:36:02;;;;;;;;;;;;;;;;;;4218837;28;1566;-61
2022/03/20 15:38:22;;;;;;;;;;;;;;;;;;4218562;28;1536;-62
2022/03/20 15:40:43;;;;;;;;;;;;;;;;;;4219083;28;1619;-61
2022/03/20 15:43:04;;;;;;;;;;;;;;;;;;4218396;28;1336;-61
2022/03/20 15:45:26;;;;;;;;;;;;;;;;;;4216573;28;2010;-61
2022/03/20 15:47:47;;;;;;;;;;;;;;;;;;4218840;28;1724;-61
2022/03/20 15:50:08;;;;;;;;;;;;;;;;;;4219527;28;1556;-61
2022/03/20 15:52:29;;;;;;;;;;;;;;;;;;4219825;28;1937;-62
2022/03/20 15:54:50;;;;;;;;;;;;;;;;;;4220625;28;1101;-61
2022/03/20 15:57:11;;;;;;;;;;;;;;;;;;4220448;28;1014;-61
2022/03/20 15:59:32;;;;;;;;;;;;;;;;;;4220472;28;1103;-62
2022/03/20 16:01:53;;;;;;;;;;;;;;;;;;4203930;28;1115;-61
2022/03/20 16:04:14;;;;;;;;;;;;;;;;;;4218955;28;1586;-63
2022/03/20 16:06:35;;;;;;;;;;;;;;;;;;4219030;28;1495;-63
2022/03/20 16:08:56;;;;;;;;;;;;;;;;;;4219077;28;1974;-63
2022/03/20 16:11:17;;;;;;;;;;;;;;;;;;4213927;28;1408;-62
2022/03/20 16:13:38;;;;;;;;;;;;;;;;;;4217787;28;1984;-63
2022/03/20 16:16:02;;;;;;;;;;;;;;;;;;4217209;28;1881;-63
2022/03/20 16:18:23;;;;;;;;;;;;;;;;;;4202399;28;997;-64
2022/03/20 16:20:44;;;;;;;;;;;;;;;;;;4217489;28;1094;-65
2022/03/20 16:28:32;;;;;;;;;;;;;;;;;;4219145;28;1277;-62
2022/03/20 16:30:52;;;;;;;;;;;;;;;;;;4203222;28;2395;-63
2022/03/20 16:33:13;;;;;;;;;;;;;;;;;;4202254;28;1914;-63
2022/03/20 16:35:34;;;;;;;;;;;;;;;;;;4212085;28;1404;-61
2022/03/20 16:37:55;;;;;;;;;;;;;;;;;;4219559;28;942;-59
2022/03/20 16:40:17;;;;;;;;;;;;;;;;;;4219603;28;1496;-57
2022/03/20 16:42:38;;;;;;;;;;;;;;;;;;4219276;28;2064;-58
2022/03/20 16:45:04;;;;;;;;;;;;;;;;;;4220174;28;1084;-58
2022/03/20 16:47:25;;;;;;;;;;;;;;;;;;4219951;28;1008;-58
2022/03/20 16:49:49;;;;;;;;;;;;;;;;;;4220237;28;975;-58
2022/03/20 16:52:10;;;;;;;;;;;;;;;;;;4219608;28;1495;-59
2022/03/20 16:54:31;;;;;;;;;;;;;;;;;;4219232;28;2016;-58
2022/03/20 16:56:51;;;;;;;;;;;;;;;;;;4219657;28;986;-58
2022/03/20 16:59:12;;;;;;;;;;;;;;;;;;4219972;28;1074;-56
2022/03/20 17:01:33;;;;;;;;;;;;;;;;;;4219435;28;1184;-57
2022/03/20 17:03:54;;;;;;;;;;;;;;;;;;4220318;28;985;-58
2022/03/20 17:06:15;;;;;;;;;;;;;;;;;;4219431;28;1027;-57
2022/03/20 17:08:37;;;;;;;;;;;;;;;;;;4219874;28;957;-57
2022/03/20 17:10:58;;;;;;;;;;;;;;;;;;4219516;28;1126;-57
2022/03/20 17:13:19;;;;;;;;;;;;;;;;;;4219358;28;1901;-57
2022/03/20 17:15:40;;;;;;;;;;;;;;;;;;4221702;28;1368;-57
2022/03/20 17:18:02;;;;;;;;;;;;;;;;;;4216790;28;1572;-57
2022/03/20 17:20:23;;;;;;;;;;;;;;;;;;4217725;28;1437;-58
2022/03/20 17:22:44;;;;;;;;;;;;;;;;;;4215931;28;1329;-61
2022/03/20 17:25:05;;;;;;;;;;;;;;;;;;4214153;28;1739;-59